sensor_id;sensor_type;location;lat;lon;timestamp;P1;durP1;ratioP1;P2;durP2;ratioP2
21677;SDS011;11000;50.360;7.582;2023-06-24T00:00:50;5.13;;;4.50;;
21677;SDS011;11000;50.360;7.582;2023-06-24T00:03:12;6.30;;;4.73;;
21677;SDS011;11000;50.360;7.582;2023-06-24T00:05:37;6.10;;;5.50;;
21677;SDS011;11000;50.360;7.582;2023-06-24T00:07:58;5.10;;;4.20;;
21677;SDS011;11000;50.360;7.582;2023-06-24T00:10:22;5.80;;;5.17;;
21677;SDS011;11000;50.360;7.582;2023-06-24T00:12:42;5.90;;;5.10;;
21677;SDS011;11000;50.360;7.582;2023-06-24T00:15:03;5.67;;;5.07;;
21677;SDS011;11000;50.360;7.582;2023-06-24T00:17:24;6.57;;;5.17;;
21677;SDS011;11000;50.360;7.582;2023-06-24T00:19:45;5.53;;;5.03;;
21677;SDS011;11000;50.360;7.582;2023-06-24T00:22:06;6.33;;;4.67;;
21677;SDS011;11000;50.360;7.582;2023-06-24T00:24:26;5.30;;;4.70;;
21677;SDS011;11000;50.360;7.582;2023-06-24T00:26:48;5.83;;;4.90;;
21677;SDS011;11000;50.360;7.582;2023-06-24T00:29:08;6.97;;;5.10;;
21677;SDS011;11000;50.360;7.582;2023-06-24T00:31:29;7.57;;;5.30;;
21677;SDS011;11000;50.360;7.582;2023-06-24T00:33:50;6.67;;;4.83;;
21677;SDS011;11000;50.360;7.582;2023-06-24T00:36:12;5.70;;;5.10;;
21677;SDS011;11000;50.360;7.582;2023-06-24T00:38:32;7.47;;;5.23;;
21677;SDS011;11000;50.360;7.582;2023-06-24T00:40:53;5.53;;;5.03;;
21677;SDS011;11000;50.360;7.582;2023-06-24T00:43:13;5.60;;;5.10;;
21677;SDS011;11000;50.360;7.582;2023-06-24T00:45:34;5.10;;;4.60;;
21677;SDS011;11000;50.360;7.582;2023-06-24T00:47:54;4.70;;;4.30;;
21677;SDS011;11000;50.360;7.582;2023-06-24T00:50:16;6.57;;;4.43;;
21677;SDS011;11000;50.360;7.582;2023-06-24T00:52:36;8.00;;;4.93;;
21677;SDS011;11000;50.360;7.582;2023-06-24T00:54:59;5.70;;;5.10;;
21677;SDS011;11000;50.360;7.582;2023-06-24T00:57:19;5.57;;;5.07;;
21677;SDS011;11000;50.360;7.582;2023-06-24T00:59:43;6.10;;;5.07;;
21677;SDS011;11000;50.360;7.582;2023-06-24T01:02:06;5.30;;;4.90;;
21677;SDS011;11000;50.360;7.582;2023-06-24T01:04:27;5.57;;;4.80;;
21677;SDS011;11000;50.360;7.582;2023-06-24T01:06:48;5.73;;;5.10;;
21677;SDS011;11000;50.360;7.582;2023-06-24T01:09:08;5.43;;;4.93;;
21677;SDS011;11000;50.360;7.582;2023-06-24T01:11:29;4.93;;;4.43;;
21677;SDS011;11000;50.360;7.582;2023-06-24T01:13:50;5.17;;;4.73;;
21677;SDS011;11000;50.360;7.582;2023-06-24T01:16:11;10.00;;;5.40;;
21677;SDS011;11000;50.360;7.582;2023-06-24T01:18:48;5.87;;;4.97;;
21677;SDS011;11000;50.360;7.582;2023-06-24T01:21:21;5.93;;;5.33;;
21677;SDS011;11000;50.360;7.582;2023-06-24T01:24:08;8.43;;;5.13;;
21677;SDS011;11000;50.360;7.582;2023-06-24T01:29:23;5.27;;;4.77;;
21677;SDS011;11000;50.360;7.582;2023-06-24T01:31:57;5.73;;;5.07;;
21677;SDS011;11000;50.360;7.582;2023-06-24T01:34:36;5.83;;;5.33;;
21677;SDS011;11000;50.360;7.582;2023-06-24T01:37:14;6.20;;;5.63;;
21677;SDS011;11000;50.360;7.582;2023-06-24T01:39:42;7.63;;;5.83;;
21677;SDS011;11000;50.360;7.582;2023-06-24T01:42:08;6.33;;;5.73;;
21677;SDS011;11000;50.360;7.582;2023-06-24T01:44:31;8.50;;;5.63;;
21677;SDS011;11000;50.360;7.582;2023-06-24T01:46:53;8.40;;;5.90;;
21677;SDS011;11000;50.360;7.582;2023-06-24T01:49:17;6.50;;;5.90;;
21677;SDS011;11000;50.360;7.582;2023-06-24T01:51:40;5.80;;;5.30;;
21677;SDS011;11000;50.360;7.582;2023-06-24T01:54:04;6.87;;;6.07;;
21677;SDS011;11000;50.360;7.582;2023-06-24T01:56:26;6.33;;;5.73;;
21677;SDS011;11000;50.360;7.582;2023-06-24T01:58:48;6.30;;;5.63;;
21677;SDS011;11000;50.360;7.582;2023-06-24T02:01:12;6.37;;;5.63;;
21677;SDS011;11000;50.360;7.582;2023-06-24T02:03:33;6.60;;;5.90;;
21677;SDS011;11000;50.360;7.582;2023-06-24T02:05:56;7.27;;;5.83;;
21677;SDS011;11000;50.360;7.582;2023-06-24T02:08:17;7.10;;;6.20;;
21677;SDS011;11000;50.360;7.582;2023-06-24T02:10:40;6.93;;;6.30;;
21677;SDS011;11000;50.360;7.582;2023-06-24T02:13:02;8.70;;;6.77;;
21677;SDS011;11000;50.360;7.582;2023-06-24T02:15:24;6.30;;;5.70;;
21677;SDS011;11000;50.360;7.582;2023-06-24T02:17:51;5.80;;;5.23;;
21677;SDS011;11000;50.360;7.582;2023-06-24T02:20:16;5.97;;;5.33;;
21677;SDS011;11000;50.360;7.582;2023-06-24T02:22:39;7.13;;;5.40;;
21677;SDS011;11000;50.360;7.582;2023-06-24T02:25:00;7.80;;;6.30;;
21677;SDS011;11000;50.360;7.582;2023-06-24T02:27:23;6.73;;;6.20;;
21677;SDS011;11000;50.360;7.582;2023-06-24T02:29:44;6.40;;;5.80;;
21677;SDS011;11000;50.360;7.582;2023-06-24T02:32:06;8.17;;;6.03;;
21677;SDS011;11000;50.360;7.582;2023-06-24T02:34:27;7.27;;;6.07;;
21677;SDS011;11000;50.360;7.582;2023-06-24T02:36:48;6.00;;;5.47;;
21677;SDS011;11000;50.360;7.582;2023-06-24T02:39:09;6.53;;;5.77;;
21677;SDS011;11000;50.360;7.582;2023-06-24T02:41:29;5.53;;;5.03;;
21677;SDS011;11000;50.360;7.582;2023-06-24T02:43:50;5.97;;;5.37;;
21677;SDS011;11000;50.360;7.582;2023-06-24T02:46:11;6.00;;;5.40;;
21677;SDS011;11000;50.360;7.582;2023-06-24T02:48:32;5.60;;;5.10;;
21677;SDS011;11000;50.360;7.582;2023-06-24T02:50:57;6.10;;;5.30;;
21677;SDS011;11000;50.360;7.582;2023-06-24T02:53:19;5.37;;;4.97;;
21677;SDS011;11000;50.360;7.582;2023-06-24T02:55:40;7.40;;;5.13;;
21677;SDS011;11000;50.360;7.582;2023-06-24T02:58:02;5.47;;;5.00;;
21677;SDS011;11000;50.360;7.582;2023-06-24T03:00:25;6.50;;;4.93;;
21677;SDS011;11000;50.360;7.582;2023-06-24T03:02:47;4.97;;;4.57;;
21677;SDS011;11000;50.360;7.582;2023-06-24T03:05:09;6.23;;;4.77;;
21677;SDS011;11000;50.360;7.582;2023-06-24T03:07:30;6.27;;;5.03;;
21677;SDS011;11000;50.360;7.582;2023-06-24T03:09:54;6.07;;;5.13;;
21677;SDS011;11000;50.360;7.582;2023-06-24T03:12:15;5.73;;;5.23;;
21677;SDS011;11000;50.360;7.582;2023-06-24T03:14:35;7.80;;;5.23;;
21677;SDS011;11000;50.360;7.582;2023-06-24T03:16:56;5.40;;;4.90;;
21677;SDS011;11000;50.360;7.582;2023-06-24T03:19:17;6.47;;;5.77;;
21677;SDS011;11000;50.360;7.582;2023-06-24T03:21:37;6.07;;;5.57;;
21677;SDS011;11000;50.360;7.582;2023-06-24T03:23:58;5.87;;;5.20;;
21677;SDS011;11000;50.360;7.582;2023-06-24T03:26:20;6.43;;;4.93;;
21677;SDS011;11000;50.360;7.582;2023-06-24T03:28:40;5.23;;;4.80;;
21677;SDS011;11000;50.360;7.582;2023-06-24T03:31:01;8.23;;;5.87;;
21677;SDS011;11000;50.360;7.582;2023-06-24T03:33:21;5.73;;;5.13;;
21677;SDS011;11000;50.360;7.582;2023-06-24T03:35:42;7.27;;;5.23;;
21677;SDS011;11000;50.360;7.582;2023-06-24T03:38:03;6.40;;;5.70;;
21677;SDS011;11000;50.360;7.582;2023-06-24T03:40:23;7.10;;;5.57;;
21677;SDS011;11000;50.360;7.582;2023-06-24T03:42:44;7.30;;;5.23;;
21677;SDS011;11000;50.360;7.582;2023-06-24T03:45:04;6.60;;;5.20;;
21677;SDS011;11000;50.360;7.582;2023-06-24T03:47:25;6.17;;;5.13;;
21677;SDS011;11000;50.360;7.582;2023-06-24T03:49:46;6.10;;;5.50;;
21677;SDS011;11000;50.360;7.582;2023-06-24T03:52:06;6.93;;;5.63;;
21677;SDS011;11000;50.360;7.582;2023-06-24T03:54:28;6.57;;;5.17;;
21677;SDS011;11000;50.360;7.582;2023-06-24T03:56:49;5.93;;;4.87;;
21677;SDS011;11000;50.360;7.582;2023-06-24T03:59:09;5.57;;;4.93;;
21677;SDS011;11000;50.360;7.582;2023-06-24T04:01:30;5.53;;;5.00;;
21677;SDS011;11000;50.360;7.582;2023-06-24T04:03:51;7.47;;;5.03;;
21677;SDS011;11000;50.360;7.582;2023-06-24T04:06:12;5.67;;;5.13;;
21677;SDS011;11000;50.360;7.582;2023-06-24T04:08:33;4.87;;;4.37;;
21677;SDS011;11000;50.360;7.582;2023-06-24T04:10:53;5.50;;;5.00;;
21677;SDS011;11000;50.360;7.582;2023-06-24T04:13:14;6.23;;;4.60;;
21677;SDS011;11000;50.360;7.582;2023-06-24T04:15:34;6.10;;;4.60;;
21677;SDS011;11000;50.360;7.582;2023-06-24T04:17:54;5.57;;;4.83;;
21677;SDS011;11000;50.360;7.582;2023-06-24T04:20:15;6.40;;;5.80;;
21677;SDS011;11000;50.360;7.582;2023-06-24T04:22:36;6.50;;;5.73;;
21677;SDS011;11000;50.360;7.582;2023-06-24T04:24:57;6.93;;;5.57;;
21677;SDS011;11000;50.360;7.582;2023-06-24T04:27:18;6.93;;;6.23;;
21677;SDS011;11000;50.360;7.582;2023-06-24T04:29:38;6.03;;;5.53;;
21677;SDS011;11000;50.360;7.582;2023-06-24T04:31:59;7.60;;;6.43;;
21677;SDS011;11000;50.360;7.582;2023-06-24T04:34:19;8.20;;;5.63;;
21677;SDS011;11000;50.360;7.582;2023-06-24T04:36:40;8.07;;;6.00;;
21677;SDS011;11000;50.360;7.582;2023-06-24T04:39:00;8.80;;;5.60;;
21677;SDS011;11000;50.360;7.582;2023-06-24T04:41:21;5.97;;;5.27;;
21677;SDS011;11000;50.360;7.582;2023-06-24T04:43:41;7.03;;;6.07;;
21677;SDS011;11000;50.360;7.582;2023-06-24T04:46:02;6.23;;;5.60;;
21677;SDS011;11000;50.360;7.582;2023-06-24T04:48:23;5.97;;;5.37;;
21677;SDS011;11000;50.360;7.582;2023-06-24T04:50:44;6.50;;;5.30;;
21677;SDS011;11000;50.360;7.582;2023-06-24T04:53:05;7.20;;;5.90;;
21677;SDS011;11000;50.360;7.582;2023-06-24T04:55:25;9.00;;;6.27;;
21677;SDS011;11000;50.360;7.582;2023-06-24T04:57:46;5.97;;;5.37;;
21677;SDS011;11000;50.360;7.582;2023-06-24T05:00:06;7.10;;;5.80;;
21677;SDS011;11000;50.360;7.582;2023-06-24T05:02:27;6.70;;;6.00;;
21677;SDS011;11000;50.360;7.582;2023-06-24T05:04:48;9.40;;;5.87;;
21677;SDS011;11000;50.360;7.582;2023-06-24T05:07:09;7.17;;;6.47;;
21677;SDS011;11000;50.360;7.582;2023-06-24T05:09:29;7.20;;;6.50;;
21677;SDS011;11000;50.360;7.582;2023-06-24T05:11:50;6.70;;;6.00;;
21677;SDS011;11000;50.360;7.582;2023-06-24T05:14:10;6.97;;;6.30;;
21677;SDS011;11000;50.360;7.582;2023-06-24T05:16:31;6.93;;;6.33;;
21677;SDS011;11000;50.360;7.582;2023-06-24T05:18:52;6.03;;;5.23;;
21677;SDS011;11000;50.360;7.582;2023-06-24T05:21:12;5.40;;;4.70;;
21677;SDS011;11000;50.360;7.582;2023-06-24T05:23:32;6.50;;;5.20;;
21677;SDS011;11000;50.360;7.582;2023-06-24T05:25:53;5.50;;;5.00;;
21677;SDS011;11000;50.360;7.582;2023-06-24T05:28:13;5.17;;;4.67;;
21677;SDS011;11000;50.360;7.582;2023-06-24T05:30:34;5.40;;;4.60;;
21677;SDS011;11000;50.360;7.582;2023-06-24T05:32:54;6.10;;;5.17;;
21677;SDS011;11000;50.360;7.582;2023-06-24T05:35:15;5.97;;;4.77;;
21677;SDS011;11000;50.360;7.582;2023-06-24T05:37:35;6.97;;;4.97;;
21677;SDS011;11000;50.360;7.582;2023-06-24T05:39:56;6.97;;;5.00;;
21677;SDS011;11000;50.360;7.582;2023-06-24T05:42:17;6.37;;;5.10;;
21677;SDS011;11000;50.360;7.582;2023-06-24T05:44:37;8.03;;;5.27;;
21677;SDS011;11000;50.360;7.582;2023-06-24T05:46:57;6.30;;;5.17;;
21677;SDS011;11000;50.360;7.582;2023-06-24T05:49:18;5.83;;;5.33;;
21677;SDS011;11000;50.360;7.582;2023-06-24T05:51:38;7.87;;;5.83;;
21677;SDS011;11000;50.360;7.582;2023-06-24T05:53:59;7.00;;;5.43;;
21677;SDS011;11000;50.360;7.582;2023-06-24T05:56:20;6.03;;;5.30;;
21677;SDS011;11000;50.360;7.582;2023-06-24T05:58:42;6.07;;;5.47;;
21677;SDS011;11000;50.360;7.582;2023-06-24T06:01:02;5.50;;;5.00;;
21677;SDS011;11000;50.360;7.582;2023-06-24T06:03:23;6.37;;;5.77;;
21677;SDS011;11000;50.360;7.582;2023-06-24T06:05:43;7.17;;;5.80;;
21677;SDS011;11000;50.360;7.582;2023-06-24T06:08:03;6.30;;;5.53;;
21677;SDS011;11000;50.360;7.582;2023-06-24T06:10:24;8.53;;;5.67;;
21677;SDS011;11000;50.360;7.582;2023-06-24T06:12:45;6.10;;;5.50;;
21677;SDS011;11000;50.360;7.582;2023-06-24T06:15:05;6.27;;;5.03;;
21677;SDS011;11000;50.360;7.582;2023-06-24T06:17:26;5.70;;;5.10;;
21677;SDS011;11000;50.360;7.582;2023-06-24T06:19:47;6.10;;;4.97;;
21677;SDS011;11000;50.360;7.582;2023-06-24T06:22:07;7.63;;;5.23;;
21677;SDS011;11000;50.360;7.582;2023-06-24T06:24:28;5.63;;;4.83;;
21677;SDS011;11000;50.360;7.582;2023-06-24T06:26:48;7.40;;;4.87;;
21677;SDS011;11000;50.360;7.582;2023-06-24T06:29:09;6.97;;;5.03;;
21677;SDS011;11000;50.360;7.582;2023-06-24T06:31:30;5.23;;;4.60;;
21677;SDS011;11000;50.360;7.582;2023-06-24T06:33:50;5.30;;;4.80;;
21677;SDS011;11000;50.360;7.582;2023-06-24T06:36:11;6.13;;;5.63;;
21677;SDS011;11000;50.360;7.582;2023-06-24T06:38:32;6.50;;;5.03;;
21677;SDS011;11000;50.360;7.582;2023-06-24T06:40:53;6.00;;;5.13;;
21677;SDS011;11000;50.360;7.582;2023-06-24T06:43:13;7.37;;;5.50;;
21677;SDS011;11000;50.360;7.582;2023-06-24T06:45:34;5.53;;;5.07;;
21677;SDS011;11000;50.360;7.582;2023-06-24T06:47:54;6.83;;;4.87;;
21677;SDS011;11000;50.360;7.582;2023-06-24T06:50:15;5.80;;;4.67;;
21677;SDS011;11000;50.360;7.582;2023-06-24T06:52:35;5.70;;;4.90;;
21677;SDS011;11000;50.360;7.582;2023-06-24T06:54:56;5.33;;;4.90;;
21677;SDS011;11000;50.360;7.582;2023-06-24T06:57:16;5.43;;;4.93;;
21677;SDS011;11000;50.360;7.582;2023-06-24T06:59:37;5.37;;;4.87;;
21677;SDS011;11000;50.360;7.582;2023-06-24T07:01:57;6.80;;;5.30;;
21677;SDS011;11000;50.360;7.582;2023-06-24T07:04:18;5.20;;;4.67;;
21677;SDS011;11000;50.360;7.582;2023-06-24T07:06:39;5.93;;;4.27;;
21677;SDS011;11000;50.360;7.582;2023-06-24T07:08:59;5.43;;;4.90;;
21677;SDS011;11000;50.360;7.582;2023-06-24T07:11:20;5.47;;;4.93;;
21677;SDS011;11000;50.360;7.582;2023-06-24T07:13:40;5.60;;;4.80;;
21677;SDS011;11000;50.360;7.582;2023-06-24T07:16:01;5.10;;;4.43;;
21677;SDS011;11000;50.360;7.582;2023-06-24T07:18:21;6.53;;;4.47;;
21677;SDS011;11000;50.360;7.582;2023-06-24T07:20:42;5.67;;;4.93;;
21677;SDS011;11000;50.360;7.582;2023-06-24T07:23:03;7.03;;;4.70;;
21677;SDS011;11000;50.360;7.582;2023-06-24T07:25:24;4.83;;;4.33;;
21677;SDS011;11000;50.360;7.582;2023-06-24T07:27:46;4.57;;;4.17;;
21677;SDS011;11000;50.360;7.582;2023-06-24T07:30:06;7.43;;;4.70;;
21677;SDS011;11000;50.360;7.582;2023-06-24T07:32:28;5.80;;;4.90;;
21677;SDS011;11000;50.360;7.582;2023-06-24T07:34:49;5.43;;;4.70;;
21677;SDS011;11000;50.360;7.582;2023-06-24T07:37:09;5.33;;;4.53;;
21677;SDS011;11000;50.360;7.582;2023-06-24T07:39:30;6.57;;;5.10;;
21677;SDS011;11000;50.360;7.582;2023-06-24T07:41:50;7.13;;;4.77;;
21677;SDS011;11000;50.360;7.582;2023-06-24T07:44:11;4.67;;;4.27;;
21677;SDS011;11000;50.360;7.582;2023-06-24T07:46:32;5.53;;;4.77;;
21677;SDS011;11000;50.360;7.582;2023-06-24T07:48:52;6.47;;;4.90;;
21677;SDS011;11000;50.360;7.582;2023-06-24T07:51:13;5.63;;;5.07;;
21677;SDS011;11000;50.360;7.582;2023-06-24T07:53:33;6.70;;;5.00;;
21677;SDS011;11000;50.360;7.582;2023-06-24T07:55:54;5.13;;;4.63;;
21677;SDS011;11000;50.360;7.582;2023-06-24T07:58:14;4.93;;;4.43;;
21677;SDS011;11000;50.360;7.582;2023-06-24T08:00:35;4.67;;;4.23;;
21677;SDS011;11000;50.360;7.582;2023-06-24T08:02:59;5.20;;;4.70;;
21677;SDS011;11000;50.360;7.582;2023-06-24T08:05:19;5.73;;;5.23;;
21677;SDS011;11000;50.360;7.582;2023-06-24T08:07:40;7.27;;;5.10;;
21677;SDS011;11000;50.360;7.582;2023-06-24T08:10:01;5.23;;;4.33;;
21677;SDS011;11000;50.360;7.582;2023-06-24T08:12:21;5.00;;;4.40;;
21677;SDS011;11000;50.360;7.582;2023-06-24T08:14:42;5.60;;;4.47;;
21677;SDS011;11000;50.360;7.582;2023-06-24T08:17:02;6.20;;;4.77;;
21677;SDS011;11000;50.360;7.582;2023-06-24T08:19:23;5.00;;;4.50;;
21677;SDS011;11000;50.360;7.582;2023-06-24T08:21:44;5.50;;;4.30;;
21677;SDS011;11000;50.360;7.582;2023-06-24T08:24:05;6.40;;;4.80;;
21677;SDS011;11000;50.360;7.582;2023-06-24T08:26:26;5.00;;;4.50;;
21677;SDS011;11000;50.360;7.582;2023-06-24T08:28:49;5.50;;;5.00;;
21677;SDS011;11000;50.360;7.582;2023-06-24T08:31:10;8.47;;;5.10;;
21677;SDS011;11000;50.360;7.582;2023-06-24T08:33:30;8.50;;;4.87;;
21677;SDS011;11000;50.360;7.582;2023-06-24T08:35:51;6.03;;;4.77;;
21677;SDS011;11000;50.360;7.582;2023-06-24T08:38:11;5.13;;;4.63;;
21677;SDS011;11000;50.360;7.582;2023-06-24T08:40:32;4.73;;;4.33;;
21677;SDS011;11000;50.360;7.582;2023-06-24T08:42:53;4.70;;;4.20;;
21677;SDS011;11000;50.360;7.582;2023-06-24T08:45:14;5.13;;;4.10;;
21677;SDS011;11000;50.360;7.582;2023-06-24T08:47:35;6.63;;;4.60;;
21677;SDS011;11000;50.360;7.582;2023-06-24T08:50:01;6.37;;;4.30;;
21677;SDS011;11000;50.360;7.582;2023-06-24T08:52:36;4.73;;;4.20;;
21677;SDS011;11000;50.360;7.582;2023-06-24T08:55:02;5.00;;;4.40;;
21677;SDS011;11000;50.360;7.582;2023-06-24T08:57:26;6.17;;;4.63;;
21677;SDS011;11000;50.360;7.582;2023-06-24T08:59:46;4.53;;;4.13;;
21677;SDS011;11000;50.360;7.582;2023-06-24T09:02:07;4.67;;;4.20;;
21677;SDS011;11000;50.360;7.582;2023-06-24T09:04:28;6.90;;;4.43;;
21677;SDS011;11000;50.360;7.582;2023-06-24T09:06:49;5.20;;;4.57;;
21677;SDS011;11000;50.360;7.582;2023-06-24T09:09:18;5.60;;;4.70;;
21677;SDS011;11000;50.360;7.582;2023-06-24T09:11:39;4.60;;;4.20;;
21677;SDS011;11000;50.360;7.582;2023-06-24T09:14:00;4.93;;;4.43;;
21677;SDS011;11000;50.360;7.582;2023-06-24T09:16:20;4.97;;;4.50;;
21677;SDS011;11000;50.360;7.582;2023-06-24T09:18:41;4.87;;;3.93;;
21677;SDS011;11000;50.360;7.582;2023-06-24T09:21:07;5.37;;;4.17;;
21677;SDS011;11000;50.360;7.582;2023-06-24T09:23:35;5.37;;;4.53;;
21677;SDS011;11000;50.360;7.582;2023-06-24T09:25:57;5.17;;;4.77;;
21677;SDS011;11000;50.360;7.582;2023-06-24T09:28:18;5.53;;;4.30;;
21677;SDS011;11000;50.360;7.582;2023-06-24T09:30:38;5.07;;;4.20;;
21677;SDS011;11000;50.360;7.582;2023-06-24T09:32:59;5.17;;;4.43;;
21677;SDS011;11000;50.360;7.582;2023-06-24T09:35:21;4.70;;;4.07;;
21677;SDS011;11000;50.360;7.582;2023-06-24T09:37:52;4.00;;;3.43;;
21677;SDS011;11000;50.360;7.582;2023-06-24T09:40:14;4.43;;;4.03;;
21677;SDS011;11000;50.360;7.582;2023-06-24T09:42:37;4.33;;;3.77;;
21677;SDS011;11000;50.360;7.582;2023-06-24T09:45:14;4.37;;;3.73;;
21677;SDS011;11000;50.360;7.582;2023-06-24T09:47:34;5.00;;;3.90;;
21677;SDS011;11000;50.360;7.582;2023-06-24T09:49:55;4.83;;;4.33;;
21677;SDS011;11000;50.360;7.582;2023-06-24T09:52:15;5.87;;;4.10;;
21677;SDS011;11000;50.360;7.582;2023-06-24T09:54:37;4.93;;;3.77;;
21677;SDS011;11000;50.360;7.582;2023-06-24T09:56:59;3.83;;;3.40;;
21677;SDS011;11000;50.360;7.582;2023-06-24T09:59:22;4.30;;;3.93;;
21677;SDS011;11000;50.360;7.582;2023-06-24T10:01:44;4.53;;;3.80;;
21677;SDS011;11000;50.360;7.582;2023-06-24T10:04:06;4.70;;;4.30;;
21677;SDS011;11000;50.360;7.582;2023-06-24T10:06:27;6.90;;;4.33;;
21677;SDS011;11000;50.360;7.582;2023-06-24T10:08:48;5.23;;;4.23;;
21677;SDS011;11000;50.360;7.582;2023-06-24T10:11:09;4.70;;;4.10;;
21677;SDS011;11000;50.360;7.582;2023-06-24T10:13:30;4.30;;;3.90;;
21677;SDS011;11000;50.360;7.582;2023-06-24T10:15:51;6.20;;;3.90;;
21677;SDS011;11000;50.360;7.582;2023-06-24T10:20:56;4.43;;;3.50;;
21677;SDS011;11000;50.360;7.582;2023-06-24T10:23:19;3.53;;;3.23;;
21677;SDS011;11000;50.360;7.582;2023-06-24T10:25:41;3.63;;;3.33;;
21677;SDS011;11000;50.360;7.582;2023-06-24T10:28:01;3.90;;;3.60;;
21677;SDS011;11000;50.360;7.582;2023-06-24T10:30:23;4.78;;;3.72;;
21677;SDS011;11000;50.360;7.582;2023-06-24T10:32:50;3.33;;;3.03;;
21677;SDS011;11000;50.360;7.582;2023-06-24T10:35:24;3.88;;;3.35;;
21677;SDS011;11000;50.360;7.582;2023-06-24T10:37:56;4.28;;;3.88;;
21677;SDS011;11000;50.360;7.582;2023-06-24T10:40:18;3.57;;;3.27;;
21677;SDS011;11000;50.360;7.582;2023-06-24T10:43:01;3.80;;;3.50;;
21677;SDS011;11000;50.360;7.582;2023-06-24T10:45:22;4.60;;;3.60;;
21677;SDS011;11000;50.360;7.582;2023-06-24T10:47:43;3.90;;;3.40;;
21677;SDS011;11000;50.360;7.582;2023-06-24T10:50:07;3.57;;;3.30;;
21677;SDS011;11000;50.360;7.582;2023-06-24T10:52:28;4.13;;;3.73;;
21677;SDS011;11000;50.360;7.582;2023-06-24T10:54:50;5.03;;;3.40;;
21677;SDS011;11000;50.360;7.582;2023-06-24T10:57:12;5.07;;;4.37;;
21677;SDS011;11000;50.360;7.582;2023-06-24T10:59:39;5.60;;;4.53;;
21677;SDS011;11000;50.360;7.582;2023-06-24T11:02:03;4.23;;;3.83;;
21677;SDS011;11000;50.360;7.582;2023-06-24T11:04:24;4.03;;;3.50;;
21677;SDS011;11000;50.360;7.582;2023-06-24T11:07:01;4.67;;;3.73;;
21677;SDS011;11000;50.360;7.582;2023-06-24T11:09:23;4.20;;;3.80;;
21677;SDS011;11000;50.360;7.582;2023-06-24T11:11:44;4.50;;;4.10;;
21677;SDS011;11000;50.360;7.582;2023-06-24T11:14:04;5.27;;;3.83;;
21677;SDS011;11000;50.360;7.582;2023-06-24T11:16:25;5.57;;;3.73;;
21677;SDS011;11000;50.360;7.582;2023-06-24T11:18:48;4.33;;;3.90;;
21677;SDS011;11000;50.360;7.582;2023-06-24T11:21:09;3.90;;;3.33;;
21677;SDS011;11000;50.360;7.582;2023-06-24T11:23:30;3.87;;;3.40;;
21677;SDS011;11000;50.360;7.582;2023-06-24T11:25:52;3.77;;;3.47;;
21677;SDS011;11000;50.360;7.582;2023-06-24T11:28:18;3.90;;;2.97;;
21677;SDS011;11000;50.360;7.582;2023-06-24T11:30:39;3.80;;;3.50;;
21677;SDS011;11000;50.360;7.582;2023-06-24T11:32:59;5.50;;;3.50;;
21677;SDS011;11000;50.360;7.582;2023-06-24T11:35:20;3.77;;;3.40;;
21677;SDS011;11000;50.360;7.582;2023-06-24T11:37:41;4.87;;;3.37;;
21677;SDS011;11000;50.360;7.582;2023-06-24T11:40:04;3.77;;;3.37;;
21677;SDS011;11000;50.360;7.582;2023-06-24T11:42:27;3.67;;;2.97;;
21677;SDS011;11000;50.360;7.582;2023-06-24T11:44:49;3.83;;;3.30;;
21677;SDS011;11000;50.360;7.582;2023-06-24T11:47:10;3.83;;;3.10;;
21677;SDS011;11000;50.360;7.582;2023-06-24T11:49:30;5.47;;;3.43;;
21677;SDS011;11000;50.360;7.582;2023-06-24T11:51:51;4.27;;;3.73;;
21677;SDS011;11000;50.360;7.582;2023-06-24T11:54:13;3.83;;;3.50;;
21677;SDS011;11000;50.360;7.582;2023-06-24T11:59:00;3.33;;;3.03;;
21677;SDS011;11000;50.360;7.582;2023-06-24T12:01:29;4.32;;;3.05;;
21677;SDS011;11000;50.360;7.582;2023-06-24T12:03:51;2.88;;;2.65;;
21677;SDS011;11000;50.360;7.582;2023-06-24T12:06:13;3.42;;;2.90;;
21677;SDS011;11000;50.360;7.582;2023-06-24T12:08:33;3.92;;;3.47;;
21677;SDS011;11000;50.360;7.582;2023-06-24T12:10:54;4.07;;;3.25;;
21677;SDS011;11000;50.360;7.582;2023-06-24T12:13:15;3.47;;;3.10;;
21677;SDS011;11000;50.360;7.582;2023-06-24T12:15:35;4.60;;;3.33;;
21677;SDS011;11000;50.360;7.582;2023-06-24T12:17:56;3.77;;;3.47;;
21677;SDS011;11000;50.360;7.582;2023-06-24T12:20:17;3.60;;;3.00;;
21677;SDS011;11000;50.360;7.582;2023-06-24T12:22:38;5.63;;;3.30;;
21677;SDS011;11000;50.360;7.582;2023-06-24T12:24:58;3.78;;;3.38;;
21677;SDS011;11000;50.360;7.582;2023-06-24T12:27:19;3.40;;;3.10;;
21677;SDS011;11000;50.360;7.582;2023-06-24T12:29:40;3.70;;;3.40;;
21677;SDS011;11000;50.360;7.582;2023-06-24T12:32:00;5.88;;;3.53;;
21677;SDS011;11000;50.360;7.582;2023-06-24T12:34:21;3.85;;;3.45;;
21677;SDS011;11000;50.360;7.582;2023-06-24T12:36:41;3.90;;;3.22;;
21677;SDS011;11000;50.360;7.582;2023-06-24T12:39:02;3.88;;;2.95;;
21677;SDS011;11000;50.360;7.582;2023-06-24T12:41:22;4.65;;;3.40;;
21677;SDS011;11000;50.360;7.582;2023-06-24T12:43:43;5.53;;;3.45;;
21677;SDS011;11000;50.360;7.582;2023-06-24T12:46:03;3.60;;;3.30;;
21677;SDS011;11000;50.360;7.582;2023-06-24T12:48:24;4.10;;;3.33;;
21677;SDS011;11000;50.360;7.582;2023-06-24T12:50:44;3.60;;;3.30;;
21677;SDS011;11000;50.360;7.582;2023-06-24T12:53:05;3.63;;;3.07;;
21677;SDS011;11000;50.360;7.582;2023-06-24T12:55:25;3.20;;;2.90;;
21677;SDS011;11000;50.360;7.582;2023-06-24T12:57:46;3.73;;;3.33;;
21677;SDS011;11000;50.360;7.582;2023-06-24T13:00:06;3.47;;;3.17;;
21677;SDS011;11000;50.360;7.582;2023-06-24T13:02:28;4.82;;;3.63;;
21677;SDS011;11000;50.360;7.582;2023-06-24T13:04:48;4.22;;;3.25;;
21677;SDS011;11000;50.360;7.582;2023-06-24T13:07:09;3.67;;;3.00;;
21677;SDS011;11000;50.360;7.582;2023-06-24T13:09:29;3.70;;;3.40;;
21677;SDS011;11000;50.360;7.582;2023-06-24T13:11:50;3.40;;;3.10;;
21677;SDS011;11000;50.360;7.582;2023-06-24T13:14:12;3.72;;;3.35;;
21677;SDS011;11000;50.360;7.582;2023-06-24T13:16:32;4.38;;;3.15;;
21677;SDS011;11000;50.360;7.582;2023-06-24T13:18:53;3.58;;;3.28;;
21677;SDS011;11000;50.360;7.582;2023-06-24T13:21:13;3.95;;;3.55;;
21677;SDS011;11000;50.360;7.582;2023-06-24T13:23:34;3.70;;;3.40;;
21677;SDS011;11000;50.360;7.582;2023-06-24T13:25:57;6.05;;;3.42;;
21677;SDS011;11000;50.360;7.582;2023-06-24T13:28:18;3.50;;;3.20;;
21677;SDS011;11000;50.360;7.582;2023-06-24T13:30:38;6.03;;;3.22;;
21677;SDS011;11000;50.360;7.582;2023-06-24T13:32:58;3.20;;;2.92;;
21677;SDS011;11000;50.360;7.582;2023-06-24T13:35:19;3.70;;;3.45;;
21677;SDS011;11000;50.360;7.582;2023-06-24T13:37:39;4.13;;;3.70;;
21677;SDS011;11000;50.360;7.582;2023-06-24T13:40:00;3.63;;;3.30;;
21677;SDS011;11000;50.360;7.582;2023-06-24T13:42:21;3.97;;;3.27;;
21677;SDS011;11000;50.360;7.582;2023-06-24T13:44:41;3.53;;;3.22;;
21677;SDS011;11000;50.360;7.582;2023-06-24T13:47:02;3.42;;;3.13;;
21677;SDS011;11000;50.360;7.582;2023-06-24T13:49:23;3.50;;;3.20;;
21677;SDS011;11000;50.360;7.582;2023-06-24T13:51:43;3.30;;;3.00;;
21677;SDS011;11000;50.360;7.582;2023-06-24T13:54:03;3.95;;;3.20;;
21677;SDS011;11000;50.360;7.582;2023-06-24T13:56:24;3.17;;;2.90;;
21677;SDS011;11000;50.360;7.582;2023-06-24T13:58:46;3.35;;;2.90;;
21677;SDS011;11000;50.360;7.582;2023-06-24T14:01:06;4.25;;;2.95;;
21677;SDS011;11000;50.360;7.582;2023-06-24T14:03:27;3.15;;;2.85;;
21677;SDS011;11000;50.360;7.582;2023-06-24T14:05:47;3.35;;;3.05;;
21677;SDS011;11000;50.360;7.582;2023-06-24T14:08:08;3.97;;;3.60;;
21677;SDS011;11000;50.360;7.582;2023-06-24T14:10:28;3.35;;;2.88;;
21677;SDS011;11000;50.360;7.582;2023-06-24T14:12:49;3.30;;;3.00;;
21677;SDS011;11000;50.360;7.582;2023-06-24T14:15:09;3.42;;;3.13;;
21677;SDS011;11000;50.360;7.582;2023-06-24T14:17:30;3.22;;;2.92;;
21677;SDS011;11000;50.360;7.582;2023-06-24T14:19:51;3.80;;;2.83;;
21677;SDS011;11000;50.360;7.582;2023-06-24T14:22:11;3.60;;;3.20;;